Louisville, Kentucky
Current Conditions -  °F | °C
As of 7:56 PM on Saturday 25 Oct 2014 (Local Time) from KSDF Reporting Station
Clear Clear  
Wind Chill: 21°   Ceiling: Unl
Heat Index: 21°   Visibility: 10mi
Dew Point: 14°   Wind: 13mph
Humidity: 65%   Direction: 210°SSW
Pressure: 29.96"   Gusts: NA
Location:  38.25°N, 85.77°W
Report Text: KSDF 252356Z 21011KT 10SM CLR 21/14 A2996 RMK AO2 SLP144 T02060139 10250 20206 53001
Loading
Personal Weather Stations






























Interactive Weather Map
Tropical Storm Tracking
New forecast layout! Learn more

10-Day Weather Forecast

Advertisements
Track Severe Weather on mobile